sensor_id;sensor_type;location;lat;lon;timestamp;temperature;humidity
25550;DHT22;13444;50.562;7.262;2022-11-11T00:00:21;8.60;99.90
25550;DHT22;13444;50.562;7.262;2022-11-11T00:02:47;8.60;99.90
25550;DHT22;13444;50.562;7.262;2022-11-11T00:05:16;8.60;99.90
25550;DHT22;13444;50.562;7.262;2022-11-11T00:07:42;8.60;99.90
25550;DHT22;13444;50.562;7.262;2022-11-11T00:10:09;8.60;99.90
25550;DHT22;13444;50.562;7.262;2022-11-11T00:12:34;8.60;99.90
25550;DHT22;13444;50.562;7.262;2022-11-11T00:15:00;8.50;99.90
25550;DHT22;13444;50.562;7.262;2022-11-11T00:17:26;8.50;99.90
25550;DHT22;13444;50.562;7.262;2022-11-11T00:20:10;8.50;99.90
25550;DHT22;13444;50.562;7.262;2022-11-11T00:22:54;8.50;99.90
25550;DHT22;13444;50.562;7.262;2022-11-11T00:25:38;8.50;99.90
25550;DHT22;13444;50.562;7.262;2022-11-11T00:28:04;8.50;99.90
25550;DHT22;13444;50.562;7.262;2022-11-11T00:30:29;8.50;99.90
25550;DHT22;13444;50.562;7.262;2022-11-11T00:32:55;8.50;99.90
25550;DHT22;13444;50.562;7.262;2022-11-11T00:35:21;8.50;99.90
25550;DHT22;13444;50.562;7.262;2022-11-11T00:38:10;8.50;99.90
25550;DHT22;13444;50.562;7.262;2022-11-11T00:40:56;8.50;99.90
25550;DHT22;13444;50.562;7.262;2022-11-11T00:43:21;8.40;99.90
25550;DHT22;13444;50.562;7.262;2022-11-11T00:45:47;8.30;99.90
25550;DHT22;13444;50.562;7.262;2022-11-11T00:48:12;8.30;99.90
25550;DHT22;13444;50.562;7.262;2022-11-11T00:50:56;8.20;99.90
25550;DHT22;13444;50.562;7.262;2022-11-11T00:53:28;8.30;99.90
25550;DHT22;13444;50.562;7.262;2022-11-11T00:55:55;8.30;99.90
25550;DHT22;13444;50.562;7.262;2022-11-11T00:58:21;8.30;99.90
25550;DHT22;13444;50.562;7.262;2022-11-11T01:00:47;8.30;99.90
25550;DHT22;13444;50.562;7.262;2022-11-11T01:03:14;8.20;99.90
25550;DHT22;13444;50.562;7.262;2022-11-11T01:05:40;8.20;99.90
25550;DHT22;13444;50.562;7.262;2022-11-11T01:08:06;8.10;99.90
25550;DHT22;13444;50.562;7.262;2022-11-11T01:10:31;8.10;99.90
25550;DHT22;13444;50.562;7.262;2022-11-11T01:13:17;8.10;99.90
25550;DHT22;13444;50.562;7.262;2022-11-11T01:15:46;8.10;99.90
25550;DHT22;13444;50.562;7.262;2022-11-11T01:18:14;8.20;99.90
25550;DHT22;13444;50.562;7.262;2022-11-11T01:20:41;8.20;99.90
25550;DHT22;13444;50.562;7.262;2022-11-11T01:23:08;8.20;99.90
25550;DHT22;13444;50.562;7.262;2022-11-11T01:25:35;8.20;99.90
25550;DHT22;13444;50.562;7.262;2022-11-11T01:28:02;8.30;99.90
25550;DHT22;13444;50.562;7.262;2022-11-11T01:30:30;8.20;99.90
25550;DHT22;13444;50.562;7.262;2022-11-11T01:32:55;8.20;99.90
25550;DHT22;13444;50.562;7.262;2022-11-11T01:35:21;8.20;99.90
25550;DHT22;13444;50.562;7.262;2022-11-11T01:37:47;8.20;99.90
25550;DHT22;13444;50.562;7.262;2022-11-11T01:40:12;8.20;99.90
25550;DHT22;13444;50.562;7.262;2022-11-11T01:43:22;8.20;99.90
25550;DHT22;13444;50.562;7.262;2022-11-11T01:45:59;8.10;99.90
25550;DHT22;13444;50.562;7.262;2022-11-11T01:48:33;8.10;99.90
25550;DHT22;13444;50.562;7.262;2022-11-11T01:54:45;8.10;99.90
25550;DHT22;13444;50.562;7.262;2022-11-11T01:59:43;8.10;99.90
25550;DHT22;13444;50.562;7.262;2022-11-11T02:02:19;8.10;99.90
25550;DHT22;13444;50.562;7.262;2022-11-11T02:04:46;8.20;99.90
25550;DHT22;13444;50.562;7.262;2022-11-11T02:07:32;8.20;99.90
25550;DHT22;13444;50.562;7.262;2022-11-11T02:09:58;8.10;99.90
25550;DHT22;13444;50.562;7.262;2022-11-11T02:12:25;8.10;99.90
25550;DHT22;13444;50.562;7.262;2022-11-11T02:15:09;8.10;99.90
25550;DHT22;13444;50.562;7.262;2022-11-11T02:17:35;8.10;99.90
25550;DHT22;13444;50.562;7.262;2022-11-11T02:20:02;8.10;99.90
25550;DHT22;13444;50.562;7.262;2022-11-11T02:22:43;8.00;99.90
25550;DHT22;13444;50.562;7.262;2022-11-11T02:25:15;8.10;99.90
25550;DHT22;13444;50.562;7.262;2022-11-11T02:27:45;8.10;99.90
25550;DHT22;13444;50.562;7.262;2022-11-11T02:30:11;8.00;99.90
25550;DHT22;13444;50.562;7.262;2022-11-11T02:32:44;8.00;99.90
25550;DHT22;13444;50.562;7.262;2022-11-11T02:35:13;8.10;99.90
25550;DHT22;13444;50.562;7.262;2022-11-11T02:37:41;8.00;99.90
25550;DHT22;13444;50.562;7.262;2022-11-11T02:40:08;8.00;99.90
25550;DHT22;13444;50.562;7.262;2022-11-11T02:42:34;8.00;99.90
25550;DHT22;13444;50.562;7.262;2022-11-11T02:45:00;8.10;99.90
25550;DHT22;13444;50.562;7.262;2022-11-11T02:47:26;8.00;99.90
25550;DHT22;13444;50.562;7.262;2022-11-11T02:49:52;8.00;99.90
25550;DHT22;13444;50.562;7.262;2022-11-11T02:52:17;8.00;99.90
25550;DHT22;13444;50.562;7.262;2022-11-11T02:54:43;8.00;99.90
25550;DHT22;13444;50.562;7.262;2022-11-11T02:57:08;7.90;99.90
25550;DHT22;13444;50.562;7.262;2022-11-11T02:59:39;7.90;99.90
25550;DHT22;13444;50.562;7.262;2022-11-11T03:02:05;7.90;99.90
25550;DHT22;13444;50.562;7.262;2022-11-11T03:04:32;7.80;99.90
25550;DHT22;13444;50.562;7.262;2022-11-11T03:06:57;7.80;99.90
25550;DHT22;13444;50.562;7.262;2022-11-11T03:09:23;7.80;99.90
25550;DHT22;13444;50.562;7.262;2022-11-11T03:11:49;7.80;99.90
25550;DHT22;13444;50.562;7.262;2022-11-11T03:14:14;7.80;99.90
25550;DHT22;13444;50.562;7.262;2022-11-11T03:16:40;7.80;99.90
25550;DHT22;13444;50.562;7.262;2022-11-11T03:19:24;7.80;99.90
25550;DHT22;13444;50.562;7.262;2022-11-11T03:21:49;7.70;99.90
25550;DHT22;13444;50.562;7.262;2022-11-11T03:24:15;7.70;99.90
25550;DHT22;13444;50.562;7.262;2022-11-11T03:26:40;7.60;99.90
25550;DHT22;13444;50.562;7.262;2022-11-11T03:29:06;7.60;99.90
25550;DHT22;13444;50.562;7.262;2022-11-11T03:31:31;7.60;99.90
25550;DHT22;13444;50.562;7.262;2022-11-11T03:33:57;7.60;99.90
25550;DHT22;13444;50.562;7.262;2022-11-11T03:36:45;7.50;99.90
25550;DHT22;13444;50.562;7.262;2022-11-11T03:39:30;7.50;99.90
25550;DHT22;13444;50.562;7.262;2022-11-11T03:41:56;7.50;99.90
25550;DHT22;13444;50.562;7.262;2022-11-11T03:44:22;7.50;99.90
25550;DHT22;13444;50.562;7.262;2022-11-11T03:46:48;7.50;99.90
25550;DHT22;13444;50.562;7.262;2022-11-11T03:49:13;7.50;99.90
25550;DHT22;13444;50.562;7.262;2022-11-11T03:51:39;7.50;99.90
25550;DHT22;13444;50.562;7.262;2022-11-11T03:54:05;7.50;99.90
25550;DHT22;13444;50.562;7.262;2022-11-11T03:56:30;7.40;99.90
25550;DHT22;13444;50.562;7.262;2022-11-11T03:58:56;7.40;99.90
25550;DHT22;13444;50.562;7.262;2022-11-11T04:01:21;7.30;99.90
25550;DHT22;13444;50.562;7.262;2022-11-11T04:04:07;7.20;99.90
25550;DHT22;13444;50.562;7.262;2022-11-11T04:06:51;7.20;99.90
25550;DHT22;13444;50.562;7.262;2022-11-11T04:09:35;7.10;99.90
25550;DHT22;13444;50.562;7.262;2022-11-11T04:12:21;7.10;99.90
25550;DHT22;13444;50.562;7.262;2022-11-11T04:14:46;7.00;99.90
25550;DHT22;13444;50.562;7.262;2022-11-11T04:17:34;7.00;99.90
25550;DHT22;13444;50.562;7.262;2022-11-11T04:19:59;7.00;99.90
25550;DHT22;13444;50.562;7.262;2022-11-11T04:22:44;7.00;99.90
25550;DHT22;13444;50.562;7.262;2022-11-11T04:25:09;6.90;99.90
25550;DHT22;13444;50.562;7.262;2022-11-11T04:27:56;6.90;99.90
25550;DHT22;13444;50.562;7.262;2022-11-11T04:30:42;6.90;99.90
25550;DHT22;13444;50.562;7.262;2022-11-11T04:33:08;6.90;99.90
25550;DHT22;13444;50.562;7.262;2022-11-11T04:35:33;6.80;99.90
25550;DHT22;13444;50.562;7.262;2022-11-11T04:37:59;6.80;99.90
25550;DHT22;13444;50.562;7.262;2022-11-11T04:40:43;6.80;99.90
25550;DHT22;13444;50.562;7.262;2022-11-11T04:43:28;6.70;99.90
25550;DHT22;13444;50.562;7.262;2022-11-11T04:45:57;6.70;99.90
25550;DHT22;13444;50.562;7.262;2022-11-11T04:48:23;6.60;99.90
25550;DHT22;13444;50.562;7.262;2022-11-11T04:50:48;6.60;99.90
25550;DHT22;13444;50.562;7.262;2022-11-11T04:53:14;6.50;99.90
25550;DHT22;13444;50.562;7.262;2022-11-11T04:55:41;6.40;99.90
25550;DHT22;13444;50.562;7.262;2022-11-11T04:58:32;6.40;99.90
25550;DHT22;13444;50.562;7.262;2022-11-11T05:00:58;6.40;99.90
25550;DHT22;13444;50.562;7.262;2022-11-11T05:03:24;6.40;99.90
25550;DHT22;13444;50.562;7.262;2022-11-11T05:05:55;6.30;99.90
25550;DHT22;13444;50.562;7.262;2022-11-11T05:08:41;6.30;99.90
25550;DHT22;13444;50.562;7.262;2022-11-11T05:11:31;6.30;99.90
25550;DHT22;13444;50.562;7.262;2022-11-11T05:14:00;6.30;99.90
25550;DHT22;13444;50.562;7.262;2022-11-11T05:16:46;6.20;99.90
25550;DHT22;13444;50.562;7.262;2022-11-11T05:19:31;6.20;99.90
25550;DHT22;13444;50.562;7.262;2022-11-11T05:22:34;6.20;99.90
25550;DHT22;13444;50.562;7.262;2022-11-11T05:25:00;6.20;99.90
25550;DHT22;13444;50.562;7.262;2022-11-11T05:27:44;6.10;99.90
25550;DHT22;13444;50.562;7.262;2022-11-11T05:30:11;6.10;99.90
25550;DHT22;13444;50.562;7.262;2022-11-11T05:32:38;6.10;99.90
25550;DHT22;13444;50.562;7.262;2022-11-11T05:35:04;6.10;99.90
25550;DHT22;13444;50.562;7.262;2022-11-11T05:37:30;6.00;99.90
25550;DHT22;13444;50.562;7.262;2022-11-11T05:39:56;6.00;99.90
25550;DHT22;13444;50.562;7.262;2022-11-11T05:42:21;6.00;99.90
25550;DHT22;13444;50.562;7.262;2022-11-11T05:44:47;5.90;99.90
25550;DHT22;13444;50.562;7.262;2022-11-11T05:47:12;6.00;99.90
25550;DHT22;13444;50.562;7.262;2022-11-11T05:49:38;5.90;99.90
25550;DHT22;13444;50.562;7.262;2022-11-11T05:52:04;5.90;99.90
25550;DHT22;13444;50.562;7.262;2022-11-11T05:54:30;5.90;99.90
25550;DHT22;13444;50.562;7.262;2022-11-11T05:56:55;5.80;99.90
25550;DHT22;13444;50.562;7.262;2022-11-11T05:59:21;5.80;99.90
25550;DHT22;13444;50.562;7.262;2022-11-11T06:01:46;5.80;99.90
25550;DHT22;13444;50.562;7.262;2022-11-11T06:04:12;5.80;99.90
25550;DHT22;13444;50.562;7.262;2022-11-11T06:06:37;5.80;99.90
25550;DHT22;13444;50.562;7.262;2022-11-11T06:09:03;5.80;99.90
25550;DHT22;13444;50.562;7.262;2022-11-11T06:11:29;5.80;99.90
25550;DHT22;13444;50.562;7.262;2022-11-11T06:13:55;5.80;99.90
25550;DHT22;13444;50.562;7.262;2022-11-11T06:16:21;5.70;99.90
25550;DHT22;13444;50.562;7.262;2022-11-11T06:18:48;5.70;99.90
25550;DHT22;13444;50.562;7.262;2022-11-11T06:21:14;5.70;99.90
25550;DHT22;13444;50.562;7.262;2022-11-11T06:23:39;5.70;99.90
25550;DHT22;13444;50.562;7.262;2022-11-11T06:26:05;5.70;99.90
25550;DHT22;13444;50.562;7.262;2022-11-11T06:28:38;5.80;99.90
25550;DHT22;13444;50.562;7.262;2022-11-11T06:31:04;5.70;99.90
25550;DHT22;13444;50.562;7.262;2022-11-11T06:33:35;5.80;99.90
25550;DHT22;13444;50.562;7.262;2022-11-11T06:36:02;5.80;99.90
25550;DHT22;13444;50.562;7.262;2022-11-11T06:38:27;5.70;99.90
25550;DHT22;13444;50.562;7.262;2022-11-11T06:40:53;5.70;99.90
25550;DHT22;13444;50.562;7.262;2022-11-11T06:43:19;5.80;99.90
25550;DHT22;13444;50.562;7.262;2022-11-11T06:45:44;5.80;99.90
25550;DHT22;13444;50.562;7.262;2022-11-11T06:48:10;5.90;99.90
25550;DHT22;13444;50.562;7.262;2022-11-11T06:50:36;6.00;99.90
25550;DHT22;13444;50.562;7.262;2022-11-11T06:53:09;6.00;99.90
25550;DHT22;13444;50.562;7.262;2022-11-11T06:55:35;6.00;99.90
25550;DHT22;13444;50.562;7.262;2022-11-11T07:00:37;6.00;99.90
25550;DHT22;13444;50.562;7.262;2022-11-11T07:03:04;6.00;99.90
25550;DHT22;13444;50.562;7.262;2022-11-11T07:05:31;6.00;99.90
25550;DHT22;13444;50.562;7.262;2022-11-11T07:08:00;6.10;99.90
25550;DHT22;13444;50.562;7.262;2022-11-11T07:10:26;6.10;99.90
25550;DHT22;13444;50.562;7.262;2022-11-11T07:12:51;6.10;99.90
25550;DHT22;13444;50.562;7.262;2022-11-11T07:15:17;6.20;99.90
25550;DHT22;13444;50.562;7.262;2022-11-11T07:17:43;6.20;99.90
25550;DHT22;13444;50.562;7.262;2022-11-11T07:20:09;6.20;99.90
25550;DHT22;13444;50.562;7.262;2022-11-11T07:22:35;6.30;99.90
25550;DHT22;13444;50.562;7.262;2022-11-11T07:25:01;6.30;99.90
25550;DHT22;13444;50.562;7.262;2022-11-11T07:27:27;6.40;99.90
25550;DHT22;13444;50.562;7.262;2022-11-11T07:29:52;6.40;99.90
25550;DHT22;13444;50.562;7.262;2022-11-11T07:32:18;6.50;99.90
25550;DHT22;13444;50.562;7.262;2022-11-11T07:34:43;6.50;99.90
25550;DHT22;13444;50.562;7.262;2022-11-11T07:37:09;6.50;99.90
25550;DHT22;13444;50.562;7.262;2022-11-11T07:39:35;6.50;99.90
25550;DHT22;13444;50.562;7.262;2022-11-11T07:42:00;6.60;99.90
25550;DHT22;13444;50.562;7.262;2022-11-11T07:44:26;6.60;99.90
25550;DHT22;13444;50.562;7.262;2022-11-11T07:46:51;6.60;99.90
25550;DHT22;13444;50.562;7.262;2022-11-11T07:49:17;6.70;99.90
25550;DHT22;13444;50.562;7.262;2022-11-11T07:51:42;6.80;99.90
25550;DHT22;13444;50.562;7.262;2022-11-11T07:54:08;6.90;99.90
25550;DHT22;13444;50.562;7.262;2022-11-11T07:56:34;7.10;99.90
25550;DHT22;13444;50.562;7.262;2022-11-11T07:58:59;7.30;99.90
25550;DHT22;13444;50.562;7.262;2022-11-11T08:01:25;7.40;99.90
25550;DHT22;13444;50.562;7.262;2022-11-11T08:03:50;7.60;99.90
25550;DHT22;13444;50.562;7.262;2022-11-11T08:06:20;7.80;99.90
25550;DHT22;13444;50.562;7.262;2022-11-11T08:08:46;7.90;99.90
25550;DHT22;13444;50.562;7.262;2022-11-11T08:11:12;8.00;99.90
25550;DHT22;13444;50.562;7.262;2022-11-11T08:13:38;8.20;99.90
25550;DHT22;13444;50.562;7.262;2022-11-11T08:16:14;8.30;99.90
25550;DHT22;13444;50.562;7.262;2022-11-11T08:18:40;8.40;99.90
25550;DHT22;13444;50.562;7.262;2022-11-11T08:21:06;8.60;99.90
25550;DHT22;13444;50.562;7.262;2022-11-11T08:23:32;8.70;99.90
25550;DHT22;13444;50.562;7.262;2022-11-11T08:26:00;8.80;99.90
25550;DHT22;13444;50.562;7.262;2022-11-11T08:28:27;8.90;99.90
25550;DHT22;13444;50.562;7.262;2022-11-11T08:30:53;9.00;99.90
25550;DHT22;13444;50.562;7.262;2022-11-11T08:33:20;9.10;99.90
25550;DHT22;13444;50.562;7.262;2022-11-11T08:35:49;9.20;99.90
25550;DHT22;13444;50.562;7.262;2022-11-11T08:38:23;9.40;99.90
25550;DHT22;13444;50.562;7.262;2022-11-11T08:40:52;9.40;99.90
25550;DHT22;13444;50.562;7.262;2022-11-11T08:43:18;9.50;99.90
25550;DHT22;13444;50.562;7.262;2022-11-11T08:45:44;9.60;99.90
25550;DHT22;13444;50.562;7.262;2022-11-11T08:48:09;9.70;99.90
25550;DHT22;13444;50.562;7.262;2022-11-11T08:50:39;9.80;99.90
25550;DHT22;13444;50.562;7.262;2022-11-11T08:53:07;9.90;99.90
25550;DHT22;13444;50.562;7.262;2022-11-11T08:55:34;9.90;99.90
25550;DHT22;13444;50.562;7.262;2022-11-11T08:58:01;10.00;99.90
25550;DHT22;13444;50.562;7.262;2022-11-11T09:00:27;10.00;99.90
25550;DHT22;13444;50.562;7.262;2022-11-11T09:02:53;10.00;99.90
25550;DHT22;13444;50.562;7.262;2022-11-11T09:05:19;10.10;99.90
25550;DHT22;13444;50.562;7.262;2022-11-11T09:07:44;10.10;99.90
25550;DHT22;13444;50.562;7.262;2022-11-11T09:10:10;10.20;99.90
25550;DHT22;13444;50.562;7.262;2022-11-11T09:12:36;10.30;99.90
25550;DHT22;13444;50.562;7.262;2022-11-11T09:15:01;10.30;99.90
25550;DHT22;13444;50.562;7.262;2022-11-11T09:17:27;10.40;99.90
25550;DHT22;13444;50.562;7.262;2022-11-11T09:19:52;10.50;99.90
25550;DHT22;13444;50.562;7.262;2022-11-11T09:22:18;10.60;99.90
25550;DHT22;13444;50.562;7.262;2022-11-11T09:24:44;10.80;99.90
25550;DHT22;13444;50.562;7.262;2022-11-11T09:27:10;10.90;99.90
25550;DHT22;13444;50.562;7.262;2022-11-11T09:29:36;11.10;99.90
25550;DHT22;13444;50.562;7.262;2022-11-11T09:32:02;11.10;99.90
25550;DHT22;13444;50.562;7.262;2022-11-11T09:34:27;11.00;99.90
25550;DHT22;13444;50.562;7.262;2022-11-11T09:36:53;11.00;99.90
25550;DHT22;13444;50.562;7.262;2022-11-11T09:39:19;11.20;99.90
25550;DHT22;13444;50.562;7.262;2022-11-11T09:42:13;11.20;99.90
25550;DHT22;13444;50.562;7.262;2022-11-11T09:44:57;11.30;99.90
25550;DHT22;13444;50.562;7.262;2022-11-11T09:50:23;11.50;99.90
25550;DHT22;13444;50.562;7.262;2022-11-11T09:52:56;11.60;99.90
25550;DHT22;13444;50.562;7.262;2022-11-11T09:56:11;11.60;99.90
25550;DHT22;13444;50.562;7.262;2022-11-11T09:58:45;11.70;99.90
25550;DHT22;13444;50.562;7.262;2022-11-11T10:01:20;11.90;99.90
25550;DHT22;13444;50.562;7.262;2022-11-11T10:04:11;12.20;99.90
25550;DHT22;13444;50.562;7.262;2022-11-11T10:06:39;12.40;99.90
25550;DHT22;13444;50.562;7.262;2022-11-11T10:09:21;12.50;99.90
25550;DHT22;13444;50.562;7.262;2022-11-11T10:12:02;12.50;99.90
25550;DHT22;13444;50.562;7.262;2022-11-11T10:14:35;12.70;99.90
25550;DHT22;13444;50.562;7.262;2022-11-11T10:17:28;12.80;99.90
25550;DHT22;13444;50.562;7.262;2022-11-11T10:20:24;12.80;99.90
25550;DHT22;13444;50.562;7.262;2022-11-11T10:23:20;12.70;99.90
25550;DHT22;13444;50.562;7.262;2022-11-11T10:25:56;12.90;99.90
25550;DHT22;13444;50.562;7.262;2022-11-11T10:28:28;13.00;99.90
25550;DHT22;13444;50.562;7.262;2022-11-11T10:30:55;13.00;99.90
25550;DHT22;13444;50.562;7.262;2022-11-11T10:33:58;13.00;99.90
25550;DHT22;13444;50.562;7.262;2022-11-11T10:36:25;13.10;99.90
25550;DHT22;13444;50.562;7.262;2022-11-11T10:38:59;13.10;99.90
25550;DHT22;13444;50.562;7.262;2022-11-11T10:41:38;13.10;99.90
25550;DHT22;13444;50.562;7.262;2022-11-11T10:44:27;13.30;99.90
25550;DHT22;13444;50.562;7.262;2022-11-11T10:47:05;13.20;99.90
25550;DHT22;13444;50.562;7.262;2022-11-11T10:49:37;13.30;99.90
25550;DHT22;13444;50.562;7.262;2022-11-11T10:52:12;13.20;99.90
25550;DHT22;13444;50.562;7.262;2022-11-11T10:54:55;13.10;99.90
25550;DHT22;13444;50.562;7.262;2022-11-11T10:57:33;12.90;99.90
25550;DHT22;13444;50.562;7.262;2022-11-11T11:00:07;12.90;99.90
25550;DHT22;13444;50.562;7.262;2022-11-11T11:02:44;13.00;99.90
25550;DHT22;13444;50.562;7.262;2022-11-11T11:05:23;13.20;99.90
25550;DHT22;13444;50.562;7.262;2022-11-11T11:07:54;13.30;99.90
25550;DHT22;13444;50.562;7.262;2022-11-11T11:10:33;13.40;99.90
25550;DHT22;13444;50.562;7.262;2022-11-11T11:13:06;13.50;99.90
25550;DHT22;13444;50.562;7.262;2022-11-11T11:15:38;13.50;99.90
25550;DHT22;13444;50.562;7.262;2022-11-11T11:18:12;13.40;99.90
25550;DHT22;13444;50.562;7.262;2022-11-11T11:20:38;13.60;99.90
25550;DHT22;13444;50.562;7.262;2022-11-11T11:23:37;13.70;99.90
25550;DHT22;13444;50.562;7.262;2022-11-11T11:26:03;13.70;99.90
25550;DHT22;13444;50.562;7.262;2022-11-11T11:28:29;13.80;99.90
25550;DHT22;13444;50.562;7.262;2022-11-11T11:31:05;13.80;99.90
25550;DHT22;13444;50.562;7.262;2022-11-11T11:33:51;13.80;99.90
25550;DHT22;13444;50.562;7.262;2022-11-11T11:36:18;13.80;99.90
25550;DHT22;13444;50.562;7.262;2022-11-11T11:38:45;13.80;99.90
25550;DHT22;13444;50.562;7.262;2022-11-11T11:41:12;13.70;99.90
25550;DHT22;13444;50.562;7.262;2022-11-11T11:43:39;13.70;99.90
25550;DHT22;13444;50.562;7.262;2022-11-11T11:46:42;13.70;99.90
25550;DHT22;13444;50.562;7.262;2022-11-11T11:49:18;13.80;99.90
25550;DHT22;13444;50.562;7.262;2022-11-11T11:52:06;13.80;99.90
25550;DHT22;13444;50.562;7.262;2022-11-11T12:00:04;13.90;99.90
25550;DHT22;13444;50.562;7.262;2022-11-11T12:05:53;13.90;99.90
25550;DHT22;13444;50.562;7.262;2022-11-11T12:08:38;13.90;99.90
25550;DHT22;13444;50.562;7.262;2022-11-11T12:11:14;13.90;99.90
25550;DHT22;13444;50.562;7.262;2022-11-11T12:17:19;13.90;99.90
25550;DHT22;13444;50.562;7.262;2022-11-11T12:19:55;13.90;99.90
25550;DHT22;13444;50.562;7.262;2022-11-11T12:25:29;13.80;99.90
25550;DHT22;13444;50.562;7.262;2022-11-11T12:30:26;13.80;99.90
25550;DHT22;13444;50.562;7.262;2022-11-11T12:38:48;13.80;99.90
25550;DHT22;13444;50.562;7.262;2022-11-11T12:44:10;13.90;99.90
25550;DHT22;13444;50.562;7.262;2022-11-11T12:46:57;14.00;99.90
25550;DHT22;13444;50.562;7.262;2022-11-11T12:55:13;14.10;99.90
25550;DHT22;13444;50.562;7.262;2022-11-11T13:00:31;14.10;99.90
25550;DHT22;13444;50.562;7.262;2022-11-11T13:03:14;14.10;99.90
25550;DHT22;13444;50.562;7.262;2022-11-11T13:05:48;14.20;99.90
25550;DHT22;13444;50.562;7.262;2022-11-11T13:08:41;14.20;99.90
25550;DHT22;13444;50.562;7.262;2022-11-11T13:16:39;14.30;99.90
25550;DHT22;13444;50.562;7.262;2022-11-11T13:19:13;14.40;99.90
25550;DHT22;13444;50.562;7.262;2022-11-11T13:21:51;14.40;99.90
25550;DHT22;13444;50.562;7.262;2022-11-11T13:24:20;14.50;99.90
25550;DHT22;13444;50.562;7.262;2022-11-11T13:26:53;14.40;99.90
25550;DHT22;13444;50.562;7.262;2022-11-11T13:32:26;14.50;99.90
25550;DHT22;13444;50.562;7.262;2022-11-11T13:34:54;14.50;99.90
25550;DHT22;13444;50.562;7.262;2022-11-11T13:37:29;14.50;99.90
25550;DHT22;13444;50.562;7.262;2022-11-11T13:42:56;14.60;99.90
25550;DHT22;13444;50.562;7.262;2022-11-11T13:45:29;14.70;99.90
25550;DHT22;13444;50.562;7.262;2022-11-11T13:47:57;14.70;99.90
25550;DHT22;13444;50.562;7.262;2022-11-11T13:50:32;14.70;99.90
25550;DHT22;13444;50.562;7.262;2022-11-11T13:53:00;14.70;99.90
25550;DHT22;13444;50.562;7.262;2022-11-11T13:55:41;14.60;99.90
25550;DHT22;13444;50.562;7.262;2022-11-11T13:58:30;14.60;99.90
25550;DHT22;13444;50.562;7.262;2022-11-11T14:01:03;14.60;99.90
25550;DHT22;13444;50.562;7.262;2022-11-11T14:03:34;14.60;99.90
25550;DHT22;13444;50.562;7.262;2022-11-11T14:13:53;14.30;99.90
25550;DHT22;13444;50.562;7.262;2022-11-11T14:22:02;14.30;99.90
25550;DHT22;13444;50.562;7.262;2022-11-11T14:24:42;14.30;99.90
25550;DHT22;13444;50.562;7.262;2022-11-11T14:29:37;14.30;99.90
25550;DHT22;13444;50.562;7.262;2022-11-11T14:32:20;14.30;99.90
25550;DHT22;13444;50.562;7.262;2022-11-11T14:40:28;14.20;99.90
25550;DHT22;13444;50.562;7.262;2022-11-11T14:42:54;14.20;99.90
25550;DHT22;13444;50.562;7.262;2022-11-11T14:47:50;14.10;99.90
25550;DHT22;13444;50.562;7.262;2022-11-11T14:50:40;14.20;99.90
25550;DHT22;13444;50.562;7.262;2022-11-11T14:53:23;14.30;99.90
25550;DHT22;13444;50.562;7.262;2022-11-11T14:55:51;14.30;99.90
25550;DHT22;13444;50.562;7.262;2022-11-11T14:58:20;14.40;99.90
25550;DHT22;13444;50.562;7.262;2022-11-11T15:00:52;14.50;99.90
25550;DHT22;13444;50.562;7.262;2022-11-11T15:03:25;14.60;99.90
25550;DHT22;13444;50.562;7.262;2022-11-11T15:06:04;14.60;99.90
25550;DHT22;13444;50.562;7.262;2022-11-11T15:11:32;14.60;99.90
25550;DHT22;13444;50.562;7.262;2022-11-11T15:25:13;14.00;99.90
25550;DHT22;13444;50.562;7.262;2022-11-11T15:28:00;13.80;99.90
25550;DHT22;13444;50.562;7.262;2022-11-11T15:33:39;13.60;99.90
25550;DHT22;13444;50.562;7.262;2022-11-11T15:38:58;13.40;99.90
25550;DHT22;13444;50.562;7.262;2022-11-11T15:41:34;13.30;99.90
25550;DHT22;13444;50.562;7.262;2022-11-11T15:44:01;13.30;99.90
25550;DHT22;13444;50.562;7.262;2022-11-11T15:46:29;13.30;99.90
25550;DHT22;13444;50.562;7.262;2022-11-11T15:48:55;13.30;99.90
25550;DHT22;13444;50.562;7.262;2022-11-11T15:53:46;13.30;99.90
25550;DHT22;13444;50.562;7.262;2022-11-11T15:56:29;13.30;99.90
25550;DHT22;13444;50.562;7.262;2022-11-11T15:58:55;13.20;99.90
25550;DHT22;13444;50.562;7.262;2022-11-11T16:01:25;13.20;99.90
25550;DHT22;13444;50.562;7.262;2022-11-11T16:03:51;13.00;99.90
25550;DHT22;13444;50.562;7.262;2022-11-11T16:06:17;12.90;99.90
25550;DHT22;13444;50.562;7.262;2022-11-11T16:08:45;12.80;99.90
25550;DHT22;13444;50.562;7.262;2022-11-11T16:11:14;12.70;99.90
25550;DHT22;13444;50.562;7.262;2022-11-11T16:13:45;12.60;99.90
25550;DHT22;13444;50.562;7.262;2022-11-11T16:19:05;12.30;99.90
25550;DHT22;13444;50.562;7.262;2022-11-11T16:21:55;12.10;99.90
25550;DHT22;13444;50.562;7.262;2022-11-11T16:24:29;12.00;99.90
25550;DHT22;13444;50.562;7.262;2022-11-11T16:26:56;11.80;99.90
25550;DHT22;13444;50.562;7.262;2022-11-11T16:29:22;11.70;99.90
25550;DHT22;13444;50.562;7.262;2022-11-11T16:31:52;11.60;99.90
25550;DHT22;13444;50.562;7.262;2022-11-11T16:37:03;11.60;99.90
25550;DHT22;13444;50.562;7.262;2022-11-11T16:39:29;11.50;99.90
25550;DHT22;13444;50.562;7.262;2022-11-11T16:41:56;11.50;99.90
25550;DHT22;13444;50.562;7.262;2022-11-11T16:44:39;11.40;99.90
25550;DHT22;13444;50.562;7.262;2022-11-11T16:50:05;11.30;99.90
25550;DHT22;13444;50.562;7.262;2022-11-11T16:55:21;11.20;99.90
25550;DHT22;13444;50.562;7.262;2022-11-11T16:57:48;11.20;99.90
25550;DHT22;13444;50.562;7.262;2022-11-11T17:00:21;11.10;99.90
25550;DHT22;13444;50.562;7.262;2022-11-11T17:03:10;11.10;99.90
25550;DHT22;13444;50.562;7.262;2022-11-11T17:08:27;10.90;99.90
25550;DHT22;13444;50.562;7.262;2022-11-11T17:10:53;10.90;99.90
25550;DHT22;13444;50.562;7.262;2022-11-11T17:13:19;10.80;99.90
25550;DHT22;13444;50.562;7.262;2022-11-11T17:15:44;10.80;99.90
25550;DHT22;13444;50.562;7.262;2022-11-11T17:18:10;10.80;99.90
25550;DHT22;13444;50.562;7.262;2022-11-11T17:20:38;10.80;99.90
25550;DHT22;13444;50.562;7.262;2022-11-11T17:23:04;10.70;99.90
25550;DHT22;13444;50.562;7.262;2022-11-11T17:25:31;10.70;99.90
25550;DHT22;13444;50.562;7.262;2022-11-11T17:27:57;10.70;99.90
25550;DHT22;13444;50.562;7.262;2022-11-11T17:30:23;10.60;99.90
25550;DHT22;13444;50.562;7.262;2022-11-11T17:32:48;10.60;99.90
25550;DHT22;13444;50.562;7.262;2022-11-11T17:35:14;10.50;99.90
25550;DHT22;13444;50.562;7.262;2022-11-11T17:37:40;10.50;99.90
25550;DHT22;13444;50.562;7.262;2022-11-11T17:40:06;10.40;99.90
25550;DHT22;13444;50.562;7.262;2022-11-11T17:42:33;10.40;99.90
25550;DHT22;13444;50.562;7.262;2022-11-11T17:44:59;10.30;99.90
25550;DHT22;13444;50.562;7.262;2022-11-11T17:47:24;10.30;99.90
25550;DHT22;13444;50.562;7.262;2022-11-11T17:49:50;10.50;99.90
25550;DHT22;13444;50.562;7.262;2022-11-11T17:52:16;10.60;99.90
25550;DHT22;13444;50.562;7.262;2022-11-11T17:54:42;10.50;99.90
25550;DHT22;13444;50.562;7.262;2022-11-11T17:57:07;10.40;99.90
25550;DHT22;13444;50.562;7.262;2022-11-11T17:59:33;10.20;99.90
25550;DHT22;13444;50.562;7.262;2022-11-11T18:01:58;10.20;99.90